sensor_id;sensor_type;location;lat;lon;timestamp;P1;durP1;ratioP1;P2;durP2;ratioP2
70757;SDS011;59316;52.964;7.102;2022-12-07T00:02:57;35.97;;;10.30;;
70757;SDS011;59316;52.964;7.102;2022-12-07T00:07:59;27.85;;;9.32;;
70757;SDS011;59316;52.964;7.102;2022-12-07T00:13:01;33.10;;;9.80;;
70757;SDS011;59316;52.964;7.102;2022-12-07T00:18:03;32.78;;;9.05;;
70757;SDS011;59316;52.964;7.102;2022-12-07T00:23:05;30.00;;;8.45;;
70757;SDS011;59316;52.964;7.102;2022-12-07T00:28:07;26.55;;;8.25;;
70757;SDS011;59316;52.964;7.102;2022-12-07T00:33:08;16.58;;;6.30;;
70757;SDS011;59316;52.964;7.102;2022-12-07T00:38:10;20.85;;;5.70;;
70757;SDS011;59316;52.964;7.102;2022-12-07T00:43:12;13.98;;;5.00;;
70757;SDS011;59316;52.964;7.102;2022-12-07T00:48:14;17.50;;;4.45;;
70757;SDS011;59316;52.964;7.102;2022-12-07T00:53:16;16.50;;;4.30;;
70757;SDS011;59316;52.964;7.102;2022-12-07T00:58:18;12.68;;;3.88;;
70757;SDS011;59316;52.964;7.102;2022-12-07T01:03:20;15.70;;;3.22;;
70757;SDS011;59316;52.964;7.102;2022-12-07T01:08:22;16.20;;;2.90;;
70757;SDS011;59316;52.964;7.102;2022-12-07T01:13:24;7.78;;;2.72;;
70757;SDS011;59316;52.964;7.102;2022-12-07T01:18:27;14.85;;;2.70;;
70757;SDS011;59316;52.964;7.102;2022-12-07T01:23:29;6.78;;;2.20;;
70757;SDS011;59316;52.964;7.102;2022-12-07T01:28:31;9.83;;;2.20;;
70757;SDS011;59316;52.964;7.102;2022-12-07T01:33:34;6.80;;;1.70;;
70757;SDS011;59316;52.964;7.102;2022-12-07T01:38:36;9.32;;;1.60;;
70757;SDS011;59316;52.964;7.102;2022-12-07T01:44:08;7.50;;;1.77;;
70757;SDS011;59316;52.964;7.102;2022-12-07T01:49:03;6.47;;;1.60;;
70757;SDS011;59316;52.964;7.102;2022-12-07T01:54:06;4.25;;;1.50;;
70757;SDS011;59316;52.964;7.102;2022-12-07T01:59:08;9.95;;;1.75;;
70757;SDS011;59316;52.964;7.102;2022-12-07T02:04:10;4.20;;;1.55;;
70757;SDS011;59316;52.964;7.102;2022-12-07T02:09:12;5.68;;;1.60;;
70757;SDS011;59316;52.964;7.102;2022-12-07T02:14:14;4.07;;;1.38;;
70757;SDS011;59316;52.964;7.102;2022-12-07T02:30:13;10.68;;;1.58;;
70757;SDS011;59316;52.964;7.102;2022-12-07T02:35:20;10.10;;;1.50;;
70757;SDS011;59316;52.964;7.102;2022-12-07T02:45:51;5.68;;;1.30;;
70757;SDS011;59316;52.964;7.102;2022-12-07T02:50:54;9.60;;;1.60;;
70757;SDS011;59316;52.964;7.102;2022-12-07T02:55:56;5.72;;;0.90;;
70757;SDS011;59316;52.964;7.102;2022-12-07T03:01:16;5.00;;;1.15;;
70757;SDS011;59316;52.964;7.102;2022-12-07T03:06:25;5.07;;;0.93;;
70757;SDS011;59316;52.964;7.102;2022-12-07T03:11:36;7.55;;;1.13;;
70757;SDS011;59316;52.964;7.102;2022-12-07T03:16:50;6.03;;;0.85;;
70757;SDS011;59316;52.964;7.102;2022-12-07T03:22:00;6.00;;;1.30;;
70757;SDS011;59316;52.964;7.102;2022-12-07T03:27:21;2.47;;;0.95;;
70757;SDS011;59316;52.964;7.102;2022-12-07T03:32:32;10.80;;;1.17;;
70757;SDS011;59316;52.964;7.102;2022-12-07T03:37:54;4.97;;;1.00;;
70757;SDS011;59316;52.964;7.102;2022-12-07T03:42:56;5.00;;;1.20;;
70757;SDS011;59316;52.964;7.102;2022-12-07T03:48:20;9.17;;;1.40;;
70757;SDS011;59316;52.964;7.102;2022-12-07T03:53:24;4.77;;;0.77;;
70757;SDS011;59316;52.964;7.102;2022-12-07T03:58:29;5.28;;;1.00;;
70757;SDS011;59316;52.964;7.102;2022-12-07T04:03:31;5.37;;;1.00;;
70757;SDS011;59316;52.964;7.102;2022-12-07T04:08:33;7.60;;;1.00;;
70757;SDS011;59316;52.964;7.102;2022-12-07T04:13:35;10.05;;;0.98;;
70757;SDS011;59316;52.964;7.102;2022-12-07T04:18:37;10.32;;;1.33;;
70757;SDS011;59316;52.964;7.102;2022-12-07T04:23:38;5.97;;;0.85;;
70757;SDS011;59316;52.964;7.102;2022-12-07T04:28:40;5.95;;;0.80;;
70757;SDS011;59316;52.964;7.102;2022-12-07T04:33:42;6.43;;;1.02;;
70757;SDS011;59316;52.964;7.102;2022-12-07T04:38:44;11.18;;;1.30;;
70757;SDS011;59316;52.964;7.102;2022-12-07T04:43:46;6.18;;;1.02;;
70757;SDS011;59316;52.964;7.102;2022-12-07T04:48:47;3.20;;;0.80;;
70757;SDS011;59316;52.964;7.102;2022-12-07T04:53:49;10.25;;;1.50;;
70757;SDS011;59316;52.964;7.102;2022-12-07T04:58:52;6.82;;;0.98;;
70757;SDS011;59316;52.964;7.102;2022-12-07T05:03:54;6.60;;;0.80;;
70757;SDS011;59316;52.964;7.102;2022-12-07T05:08:56;9.55;;;1.10;;
70757;SDS011;59316;52.964;7.102;2022-12-07T05:13:58;6.10;;;1.02;;
70757;SDS011;59316;52.964;7.102;2022-12-07T05:18:59;3.13;;;1.23;;
70757;SDS011;59316;52.964;7.102;2022-12-07T05:24:01;4.47;;;0.95;;
70757;SDS011;59316;52.964;7.102;2022-12-07T05:29:04;8.68;;;1.05;;
70757;SDS011;59316;52.964;7.102;2022-12-07T05:34:06;6.60;;;0.80;;
70757;SDS011;59316;52.964;7.102;2022-12-07T05:39:08;7.47;;;0.88;;
70757;SDS011;59316;52.964;7.102;2022-12-07T05:44:09;4.95;;;1.13;;
70757;SDS011;59316;52.964;7.102;2022-12-07T05:49:11;6.47;;;1.02;;
70757;SDS011;59316;52.964;7.102;2022-12-07T05:54:13;9.18;;;1.00;;
70757;SDS011;59316;52.964;7.102;2022-12-07T05:59:15;2.47;;;0.60;;
70757;SDS011;59316;52.964;7.102;2022-12-07T06:04:17;6.78;;;1.05;;
70757;SDS011;59316;52.964;7.102;2022-12-07T06:09:20;5.80;;;1.10;;
70757;SDS011;59316;52.964;7.102;2022-12-07T06:14:22;9.73;;;1.05;;
70757;SDS011;59316;52.964;7.102;2022-12-07T06:19:24;4.55;;;0.80;;
70757;SDS011;59316;52.964;7.102;2022-12-07T06:24:26;8.48;;;0.80;;
70757;SDS011;59316;52.964;7.102;2022-12-07T06:29:28;10.68;;;1.30;;
70757;SDS011;59316;52.964;7.102;2022-12-07T06:34:30;5.82;;;1.10;;
70757;SDS011;59316;52.964;7.102;2022-12-07T06:39:32;9.55;;;1.00;;
70757;SDS011;59316;52.964;7.102;2022-12-07T06:44:33;9.27;;;1.85;;
70757;SDS011;59316;52.964;7.102;2022-12-07T06:49:35;7.68;;;1.13;;
70757;SDS011;59316;52.964;7.102;2022-12-07T06:54:37;6.75;;;1.00;;
70757;SDS011;59316;52.964;7.102;2022-12-07T06:59:39;10.68;;;1.38;;
70757;SDS011;59316;52.964;7.102;2022-12-07T07:04:41;12.30;;;1.65;;
70757;SDS011;59316;52.964;7.102;2022-12-07T07:09:43;10.35;;;1.40;;
70757;SDS011;59316;52.964;7.102;2022-12-07T07:14:45;12.55;;;1.58;;
70757;SDS011;59316;52.964;7.102;2022-12-07T07:19:46;11.23;;;1.13;;
70757;SDS011;59316;52.964;7.102;2022-12-07T07:24:48;13.60;;;1.40;;
70757;SDS011;59316;52.964;7.102;2022-12-07T07:29:50;7.90;;;1.13;;
70757;SDS011;59316;52.964;7.102;2022-12-07T07:34:52;5.57;;;0.90;;
70757;SDS011;59316;52.964;7.102;2022-12-07T07:39:54;6.88;;;1.50;;
70757;SDS011;59316;52.964;7.102;2022-12-07T07:44:56;12.85;;;1.30;;
70757;SDS011;59316;52.964;7.102;2022-12-07T07:49:57;5.55;;;1.65;;
70757;SDS011;59316;52.964;7.102;2022-12-07T07:54:59;1.92;;;1.15;;
70757;SDS011;59316;52.964;7.102;2022-12-07T08:00:05;10.32;;;1.40;;
70757;SDS011;59316;52.964;7.102;2022-12-07T08:05:12;9.98;;;1.80;;
70757;SDS011;59316;52.964;7.102;2022-12-07T08:10:14;9.55;;;1.30;;
70757;SDS011;59316;52.964;7.102;2022-12-07T08:15:16;3.00;;;1.42;;
70757;SDS011;59316;52.964;7.102;2022-12-07T08:20:18;5.53;;;1.30;;
70757;SDS011;59316;52.964;7.102;2022-12-07T08:25:20;8.95;;;1.52;;
70757;SDS011;59316;52.964;7.102;2022-12-07T08:30:22;10.98;;;1.27;;
70757;SDS011;59316;52.964;7.102;2022-12-07T08:35:24;6.65;;;1.33;;
70757;SDS011;59316;52.964;7.102;2022-12-07T08:40:26;4.88;;;1.20;;
70757;SDS011;59316;52.964;7.102;2022-12-07T08:45:28;8.52;;;1.48;;
70757;SDS011;59316;52.964;7.102;2022-12-07T08:50:31;4.68;;;1.20;;
70757;SDS011;59316;52.964;7.102;2022-12-07T08:55:33;3.75;;;0.80;;
70757;SDS011;59316;52.964;7.102;2022-12-07T09:00:35;2.65;;;1.20;;
70757;SDS011;59316;52.964;7.102;2022-12-07T09:05:37;2.70;;;0.80;;
70757;SDS011;59316;52.964;7.102;2022-12-07T09:10:39;6.25;;;0.93;;
70757;SDS011;59316;52.964;7.102;2022-12-07T09:15:40;6.30;;;1.15;;
70757;SDS011;59316;52.964;7.102;2022-12-07T09:20:42;8.88;;;1.55;;
70757;SDS011;59316;52.964;7.102;2022-12-07T09:25:44;6.10;;;0.98;;
70757;SDS011;59316;52.964;7.102;2022-12-07T09:30:46;8.45;;;1.60;;
70757;SDS011;59316;52.964;7.102;2022-12-07T09:36:08;5.97;;;0.93;;
70757;SDS011;59316;52.964;7.102;2022-12-07T09:41:10;4.68;;;1.30;;
70757;SDS011;59316;52.964;7.102;2022-12-07T09:46:13;9.85;;;2.13;;
70757;SDS011;59316;52.964;7.102;2022-12-07T09:51:20;10.60;;;1.50;;
70757;SDS011;59316;52.964;7.102;2022-12-07T09:56:25;4.00;;;1.55;;
70757;SDS011;59316;52.964;7.102;2022-12-07T10:01:28;8.98;;;1.38;;
70757;SDS011;59316;52.964;7.102;2022-12-07T10:06:30;5.13;;;1.10;;
70757;SDS011;59316;52.964;7.102;2022-12-07T10:11:32;6.90;;;1.10;;
70757;SDS011;59316;52.964;7.102;2022-12-07T10:16:41;9.23;;;1.10;;
70757;SDS011;59316;52.964;7.102;2022-12-07T10:21:47;6.07;;;1.10;;
70757;SDS011;59316;52.964;7.102;2022-12-07T10:27:00;5.22;;;1.15;;
70757;SDS011;59316;52.964;7.102;2022-12-07T10:32:06;6.63;;;1.60;;
70757;SDS011;59316;52.964;7.102;2022-12-07T11:34:51;5.25;;;1.00;;
70757;SDS011;59316;52.964;7.102;2022-12-07T11:40:22;7.50;;;1.00;;
70757;SDS011;59316;52.964;7.102;2022-12-07T11:45:30;4.30;;;1.00;;
70757;SDS011;59316;52.964;7.102;2022-12-07T12:00:51;6.65;;;1.02;;
70757;SDS011;59316;52.964;7.102;2022-12-07T12:06:05;4.47;;;0.80;;
70757;SDS011;59316;52.964;7.102;2022-12-07T12:22:13;3.17;;;0.90;;
70757;SDS011;59316;52.964;7.102;2022-12-07T12:27:24;6.40;;;0.80;;
70757;SDS011;59316;52.964;7.102;2022-12-07T12:37:41;3.03;;;0.75;;
70757;SDS011;59316;52.964;7.102;2022-12-07T13:03:29;2.58;;;0.68;;
70757;SDS011;59316;52.964;7.102;2022-12-07T13:08:33;2.13;;;0.40;;
70757;SDS011;59316;52.964;7.102;2022-12-07T13:13:37;1.38;;;0.65;;
70757;SDS011;59316;52.964;7.102;2022-12-07T13:18:40;1.48;;;0.50;;
70757;SDS011;59316;52.964;7.102;2022-12-07T13:28:49;5.80;;;1.48;;
70757;SDS011;59316;52.964;7.102;2022-12-07T13:33:54;2.30;;;1.08;;
70757;SDS011;59316;52.964;7.102;2022-12-07T13:38:57;6.85;;;1.00;;
70757;SDS011;59316;52.964;7.102;2022-12-07T13:44:02;3.85;;;1.00;;
70757;SDS011;59316;52.964;7.102;2022-12-07T13:54:44;6.72;;;1.38;;
70757;SDS011;59316;52.964;7.102;2022-12-07T13:59:48;4.90;;;1.20;;
70757;SDS011;59316;52.964;7.102;2022-12-07T14:04:50;4.80;;;1.40;;
70757;SDS011;59316;52.964;7.102;2022-12-07T14:09:54;3.40;;;0.90;;
70757;SDS011;59316;52.964;7.102;2022-12-07T14:15:02;7.30;;;1.30;;
70757;SDS011;59316;52.964;7.102;2022-12-07T14:20:27;4.88;;;1.10;;
70757;SDS011;59316;52.964;7.102;2022-12-07T14:25:33;2.22;;;0.90;;
70757;SDS011;59316;52.964;7.102;2022-12-07T14:30:51;1.17;;;0.50;;
70757;SDS011;59316;52.964;7.102;2022-12-07T14:35:53;5.75;;;0.70;;
70757;SDS011;59316;52.964;7.102;2022-12-07T14:40:56;5.03;;;0.80;;
70757;SDS011;59316;52.964;7.102;2022-12-07T14:45:59;2.80;;;0.68;;
70757;SDS011;59316;52.964;7.102;2022-12-07T14:51:01;1.25;;;0.52;;
70757;SDS011;59316;52.964;7.102;2022-12-07T14:56:25;4.13;;;0.68;;
70757;SDS011;59316;52.964;7.102;2022-12-07T15:01:27;1.23;;;0.38;;
70757;SDS011;59316;52.964;7.102;2022-12-07T15:06:29;1.98;;;0.73;;
70757;SDS011;59316;52.964;7.102;2022-12-07T15:11:32;5.47;;;0.68;;
70757;SDS011;59316;52.964;7.102;2022-12-07T15:16:35;3.00;;;0.87;;
70757;SDS011;59316;52.964;7.102;2022-12-07T15:21:58;1.25;;;0.60;;
70757;SDS011;59316;52.964;7.102;2022-12-07T15:27:00;2.47;;;1.10;;
70757;SDS011;59316;52.964;7.102;2022-12-07T15:32:03;3.60;;;0.80;;
70757;SDS011;59316;52.964;7.102;2022-12-07T15:37:05;5.27;;;0.80;;
70757;SDS011;59316;52.964;7.102;2022-12-07T15:42:08;6.50;;;1.98;;
70757;SDS011;59316;52.964;7.102;2022-12-07T15:47:10;2.83;;;1.00;;
70757;SDS011;59316;52.964;7.102;2022-12-07T15:52:13;1.88;;;0.85;;
70757;SDS011;59316;52.964;7.102;2022-12-07T15:57:15;13.82;;;7.28;;
70757;SDS011;59316;52.964;7.102;2022-12-07T16:02:21;3.80;;;1.17;;
70757;SDS011;59316;52.964;7.102;2022-12-07T16:07:24;2.47;;;1.17;;
70757;SDS011;59316;52.964;7.102;2022-12-07T16:12:26;2.58;;;1.35;;
70757;SDS011;59316;52.964;7.102;2022-12-07T16:17:28;3.58;;;0.90;;
70757;SDS011;59316;52.964;7.102;2022-12-07T16:22:31;4.65;;;1.67;;
70757;SDS011;59316;52.964;7.102;2022-12-07T16:27:33;5.32;;;2.85;;
70757;SDS011;59316;52.964;7.102;2022-12-07T16:37:38;3.85;;;1.98;;
70757;SDS011;59316;52.964;7.102;2022-12-07T16:42:43;4.82;;;2.55;;
70757;SDS011;59316;52.964;7.102;2022-12-07T16:47:45;3.38;;;1.00;;
70757;SDS011;59316;52.964;7.102;2022-12-07T16:52:47;5.70;;;1.13;;
70757;SDS011;59316;52.964;7.102;2022-12-07T16:57:50;6.90;;;1.40;;
70757;SDS011;59316;52.964;7.102;2022-12-07T17:02:52;7.53;;;1.52;;
70757;SDS011;59316;52.964;7.102;2022-12-07T17:07:54;4.60;;;1.58;;
70757;SDS011;59316;52.964;7.102;2022-12-07T17:12:58;3.47;;;1.77;;
70757;SDS011;59316;52.964;7.102;2022-12-07T17:18:00;8.15;;;2.38;;
70757;SDS011;59316;52.964;7.102;2022-12-07T17:23:02;7.40;;;2.03;;
70757;SDS011;59316;52.964;7.102;2022-12-07T17:28:04;6.32;;;1.60;;
70757;SDS011;59316;52.964;7.102;2022-12-07T17:33:07;4.72;;;2.13;;
70757;SDS011;59316;52.964;7.102;2022-12-07T17:38:09;8.88;;;1.80;;
70757;SDS011;59316;52.964;7.102;2022-12-07T17:43:11;7.90;;;2.05;;
70757;SDS011;59316;52.964;7.102;2022-12-07T17:48:13;7.43;;;1.80;;
70757;SDS011;59316;52.964;7.102;2022-12-07T17:53:16;6.80;;;2.58;;
70757;SDS011;59316;52.964;7.102;2022-12-07T17:58:18;2.65;;;1.20;;
70757;SDS011;59316;52.964;7.102;2022-12-07T18:03:20;6.90;;;1.42;;
70757;SDS011;59316;52.964;7.102;2022-12-07T18:08:22;7.78;;;1.52;;
70757;SDS011;59316;52.964;7.102;2022-12-07T18:13:24;6.78;;;1.88;;
70757;SDS011;59316;52.964;7.102;2022-12-07T18:18:26;2.85;;;1.13;;
70757;SDS011;59316;52.964;7.102;2022-12-07T18:23:28;5.23;;;1.20;;
70757;SDS011;59316;52.964;7.102;2022-12-07T18:28:30;1.45;;;0.98;;
70757;SDS011;59316;52.964;7.102;2022-12-07T18:33:32;4.88;;;1.48;;
70757;SDS011;59316;52.964;7.102;2022-12-07T18:38:34;4.38;;;1.33;;
70757;SDS011;59316;52.964;7.102;2022-12-07T18:43:36;2.33;;;1.27;;
70757;SDS011;59316;52.964;7.102;2022-12-07T18:48:38;6.75;;;1.98;;
70757;SDS011;59316;52.964;7.102;2022-12-07T18:53:40;4.80;;;1.40;;
70757;SDS011;59316;52.964;7.102;2022-12-07T18:58:42;5.95;;;2.05;;
70757;SDS011;59316;52.964;7.102;2022-12-07T19:03:44;8.60;;;2.50;;
70757;SDS011;59316;52.964;7.102;2022-12-07T19:08:46;5.43;;;1.95;;
70757;SDS011;59316;52.964;7.102;2022-12-07T19:13:48;6.95;;;1.77;;
70757;SDS011;59316;52.964;7.102;2022-12-07T19:18:50;7.50;;;2.50;;
70757;SDS011;59316;52.964;7.102;2022-12-07T19:23:52;4.03;;;1.70;;
70757;SDS011;59316;52.964;7.102;2022-12-07T19:28:54;3.20;;;2.15;;
70757;SDS011;59316;52.964;7.102;2022-12-07T19:33:56;5.88;;;1.88;;
70757;SDS011;59316;52.964;7.102;2022-12-07T19:38:58;3.40;;;1.70;;
70757;SDS011;59316;52.964;7.102;2022-12-07T19:44:03;4.10;;;2.28;;
70757;SDS011;59316;52.964;7.102;2022-12-07T19:49:05;4.28;;;2.90;;
70757;SDS011;59316;52.964;7.102;2022-12-07T19:54:08;4.30;;;2.50;;
70757;SDS011;59316;52.964;7.102;2022-12-07T19:59:11;10.00;;;2.97;;
70757;SDS011;59316;52.964;7.102;2022-12-07T20:04:17;8.20;;;3.10;;
70757;SDS011;59316;52.964;7.102;2022-12-07T20:09:19;6.45;;;3.78;;
70757;SDS011;59316;52.964;7.102;2022-12-07T20:14:21;7.25;;;3.05;;
70757;SDS011;59316;52.964;7.102;2022-12-07T20:19:23;9.25;;;3.60;;
70757;SDS011;59316;52.964;7.102;2022-12-07T20:24:25;6.00;;;3.35;;
70757;SDS011;59316;52.964;7.102;2022-12-07T20:29:27;13.25;;;3.92;;
70757;SDS011;59316;52.964;7.102;2022-12-07T20:34:29;16.98;;;4.30;;
70757;SDS011;59316;52.964;7.102;2022-12-07T20:39:30;12.93;;;4.05;;
70757;SDS011;59316;52.964;7.102;2022-12-07T20:44:32;9.13;;;3.80;;
70757;SDS011;59316;52.964;7.102;2022-12-07T20:49:34;6.93;;;3.72;;
70757;SDS011;59316;52.964;7.102;2022-12-07T20:54:36;8.07;;;3.50;;
70757;SDS011;59316;52.964;7.102;2022-12-07T20:59:38;9.05;;;3.65;;
70757;SDS011;59316;52.964;7.102;2022-12-07T21:04:42;9.60;;;3.83;;
70757;SDS011;59316;52.964;7.102;2022-12-07T21:09:44;11.30;;;3.70;;
70757;SDS011;59316;52.964;7.102;2022-12-07T21:14:46;8.73;;;3.25;;
70757;SDS011;59316;52.964;7.102;2022-12-07T21:19:48;9.23;;;3.33;;
70757;SDS011;59316;52.964;7.102;2022-12-07T21:24:50;12.52;;;3.83;;
70757;SDS011;59316;52.964;7.102;2022-12-07T21:29:51;6.65;;;3.38;;
70757;SDS011;59316;52.964;7.102;2022-12-07T21:39:56;7.32;;;2.63;;
70757;SDS011;59316;52.964;7.102;2022-12-07T21:44:58;8.23;;;2.63;;
70757;SDS011;59316;52.964;7.102;2022-12-07T21:50:00;9.88;;;2.70;;
70757;SDS011;59316;52.964;7.102;2022-12-07T21:55:02;9.70;;;2.72;;
70757;SDS011;59316;52.964;7.102;2022-12-07T22:00:05;4.43;;;2.53;;
70757;SDS011;59316;52.964;7.102;2022-12-07T22:05:07;5.05;;;2.40;;
70757;SDS011;59316;52.964;7.102;2022-12-07T22:10:09;10.38;;;2.22;;
70757;SDS011;59316;52.964;7.102;2022-12-07T22:15:11;8.85;;;3.13;;
70757;SDS011;59316;52.964;7.102;2022-12-07T22:20:13;4.47;;;2.10;;
70757;SDS011;59316;52.964;7.102;2022-12-07T22:25:15;6.55;;;2.60;;
70757;SDS011;59316;52.964;7.102;2022-12-07T22:30:17;7.88;;;2.85;;
70757;SDS011;59316;52.964;7.102;2022-12-07T22:35:18;7.47;;;2.50;;
70757;SDS011;59316;52.964;7.102;2022-12-07T22:40:20;10.27;;;2.75;;
70757;SDS011;59316;52.964;7.102;2022-12-07T22:45:22;6.13;;;2.45;;
70757;SDS011;59316;52.964;7.102;2022-12-07T22:50:24;9.32;;;2.95;;
70757;SDS011;59316;52.964;7.102;2022-12-07T22:55:26;6.60;;;2.22;;
70757;SDS011;59316;52.964;7.102;2022-12-07T23:00:28;7.93;;;2.65;;
70757;SDS011;59316;52.964;7.102;2022-12-07T23:05:30;8.80;;;2.35;;
70757;SDS011;59316;52.964;7.102;2022-12-07T23:10:31;8.40;;;2.22;;
70757;SDS011;59316;52.964;7.102;2022-12-07T23:15:34;5.97;;;1.98;;
70757;SDS011;59316;52.964;7.102;2022-12-07T23:20:36;5.72;;;2.22;;
70757;SDS011;59316;52.964;7.102;2022-12-07T23:25:38;5.57;;;2.10;;
70757;SDS011;59316;52.964;7.102;2022-12-07T23:30:40;7.57;;;1.67;;
70757;SDS011;59316;52.964;7.102;2022-12-07T23:35:42;4.05;;;1.67;;
70757;SDS011;59316;52.964;7.102;2022-12-07T23:40:44;3.13;;;1.75;;
70757;SDS011;59316;52.964;7.102;2022-12-07T23:45:46;5.88;;;1.70;;
70757;SDS011;59316;52.964;7.102;2022-12-07T23:50:48;2.70;;;1.70;;
70757;SDS011;59316;52.964;7.102;2022-12-07T23:55:50;3.47;;;1.33;;
